KGLD/GLD METAR and TAF weather

Enter ICAO airport designator
Station Type Date Time Source
KGLD METAR 2020/11/25 22:53 UTC NOAA

KGLD 252253Z AUTO 20012G21KT 10SM CLR 11/M06 A2983 RMK AO2 SLP113 T01061061


Station Type Date Time Source
KGLD Decoded METAR 2020/11/25 22:53 UTC NOAA

GOODLAND RENNER FIELD, KS, United States (KGLD) 39-22N 101-42W 1114M
Nov 25, 2020 - 05:53 PM EST / 2020.11.25 2253 UTC
Wind: from the SSW (200 degrees) at 14 MPH (12 KT) gusting to 24 MPH (21 KT):0
Visibility: 10 mile(s):0
Sky conditions: clear
Temperature: 51.1 F (10.6 C)
Dew Point: 21.0 F (-6.1 C)
Relative Humidity: 30%
Pressure (altimeter): 29.83 in. Hg (1010 hPa)
ob: KGLD 252253Z AUTO 20012G21KT 10SM CLR 11/M06 A2983 RMK AO2 SLP113 T01061061
cycle: 23

Station Type Date Time Source
KGLD TAF 2020/11/25 18:24 UTC NOAA

TAF KGLD 251722Z 2518/2618 23011KT P6SM SKC
FM252300 20010KT P6SM SKC
FM260800 28006KT P6SM SKC
FM261400 34010KT P6SM FEW250

Example: see airport list